sensor_id;sensor_type;location;lat;lon;timestamp;P1;durP1;ratioP1;P2;durP2;ratioP2
20567;SDS011;10442;49.932;11.592;2022-09-24T00:01:35;3.75;;;3.42;;
20567;SDS011;10442;49.932;11.592;2022-09-24T00:04:07;4.17;;;3.67;;
20567;SDS011;10442;49.932;11.592;2022-09-24T00:06:39;4.63;;;3.77;;
20567;SDS011;10442;49.932;11.592;2022-09-24T00:09:09;3.73;;;3.43;;
20567;SDS011;10442;49.932;11.592;2022-09-24T00:11:38;3.90;;;3.60;;
20567;SDS011;10442;49.932;11.592;2022-09-24T00:14:06;3.85;;;3.55;;
20567;SDS011;10442;49.932;11.592;2022-09-24T00:16:34;4.07;;;3.78;;
20567;SDS011;10442;49.932;11.592;2022-09-24T00:19:02;3.47;;;3.20;;
20567;SDS011;10442;49.932;11.592;2022-09-24T00:21:34;4.60;;;4.18;;
20567;SDS011;10442;49.932;11.592;2022-09-24T00:24:04;3.90;;;3.60;;
20567;SDS011;10442;49.932;11.592;2022-09-24T00:26:34;3.93;;;3.47;;
20567;SDS011;10442;49.932;11.592;2022-09-24T00:29:18;4.20;;;3.45;;
20567;SDS011;10442;49.932;11.592;2022-09-24T00:31:48;5.50;;;4.30;;
20567;SDS011;10442;49.932;11.592;2022-09-24T00:34:16;3.95;;;3.63;;
20567;SDS011;10442;49.932;11.592;2022-09-24T00:36:44;4.63;;;3.70;;
20567;SDS011;10442;49.932;11.592;2022-09-24T00:39:13;3.93;;;3.50;;
20567;SDS011;10442;49.932;11.592;2022-09-24T00:41:41;8.43;;;4.33;;
20567;SDS011;10442;49.932;11.592;2022-09-24T00:47:13;3.83;;;3.47;;
20567;SDS011;10442;49.932;11.592;2022-09-24T00:49:49;3.33;;;3.13;;
20567;SDS011;10442;49.932;11.592;2022-09-24T00:52:16;3.67;;;3.38;;
20567;SDS011;10442;49.932;11.592;2022-09-24T00:54:45;4.40;;;4.00;;
20567;SDS011;10442;49.932;11.592;2022-09-24T00:57:13;4.18;;;3.88;;
20567;SDS011;10442;49.932;11.592;2022-09-24T00:59:41;3.88;;;3.53;;
20567;SDS011;10442;49.932;11.592;2022-09-24T01:02:10;3.30;;;3.10;;
20567;SDS011;10442;49.932;11.592;2022-09-24T01:04:38;5.50;;;4.18;;
20567;SDS011;10442;49.932;11.592;2022-09-24T01:07:06;4.00;;;3.60;;
20567;SDS011;10442;49.932;11.592;2022-09-24T01:09:33;4.00;;;3.70;;
20567;SDS011;10442;49.932;11.592;2022-09-24T01:12:03;4.22;;;3.92;;
20567;SDS011;10442;49.932;11.592;2022-09-24T01:17:26;4.35;;;3.95;;
20567;SDS011;10442;49.932;11.592;2022-09-24T01:23:06;3.67;;;3.37;;
20567;SDS011;10442;49.932;11.592;2022-09-24T01:26:07;3.50;;;3.28;;
20567;SDS011;10442;49.932;11.592;2022-09-24T01:31:21;4.93;;;4.13;;
20567;SDS011;10442;49.932;11.592;2022-09-24T01:34:00;3.33;;;3.03;;
20567;SDS011;10442;49.932;11.592;2022-09-24T01:36:32;3.90;;;3.63;;
20567;SDS011;10442;49.932;11.592;2022-09-24T01:39:02;3.65;;;3.35;;
20567;SDS011;10442;49.932;11.592;2022-09-24T01:41:32;4.60;;;3.10;;
20567;SDS011;10442;49.932;11.592;2022-09-24T01:44:02;3.63;;;3.33;;
20567;SDS011;10442;49.932;11.592;2022-09-24T01:46:33;3.60;;;3.20;;
20567;SDS011;10442;49.932;11.592;2022-09-24T01:49:04;4.40;;;4.10;;
20567;SDS011;10442;49.932;11.592;2022-09-24T01:51:46;6.40;;;3.65;;
20567;SDS011;10442;49.932;11.592;2022-09-24T01:54:21;3.60;;;3.30;;
20567;SDS011;10442;49.932;11.592;2022-09-24T01:57:06;4.57;;;4.28;;
20567;SDS011;10442;49.932;11.592;2022-09-24T01:59:50;4.30;;;4.00;;
20567;SDS011;10442;49.932;11.592;2022-09-24T02:02:26;4.60;;;4.20;;
20567;SDS011;10442;49.932;11.592;2022-09-24T02:05:04;3.93;;;3.63;;
20567;SDS011;10442;49.932;11.592;2022-09-24T02:07:44;3.60;;;3.30;;
20567;SDS011;10442;49.932;11.592;2022-09-24T02:10:50;4.22;;;3.90;;
20567;SDS011;10442;49.932;11.592;2022-09-24T02:13:28;3.90;;;3.47;;
20567;SDS011;10442;49.932;11.592;2022-09-24T02:16:07;3.60;;;3.30;;
20567;SDS011;10442;49.932;11.592;2022-09-24T02:18:38;8.87;;;3.73;;
20567;SDS011;10442;49.932;11.592;2022-09-24T02:21:12;4.00;;;3.67;;
20567;SDS011;10442;49.932;11.592;2022-09-24T02:23:49;3.90;;;3.60;;
20567;SDS011;10442;49.932;11.592;2022-09-24T02:26:17;4.75;;;4.40;;
20567;SDS011;10442;49.932;11.592;2022-09-24T02:28:45;4.07;;;3.78;;
20567;SDS011;10442;49.932;11.592;2022-09-24T02:31:17;5.10;;;4.60;;
20567;SDS011;10442;49.932;11.592;2022-09-24T02:33:50;3.70;;;3.40;;
20567;SDS011;10442;49.932;11.592;2022-09-24T02:36:37;5.00;;;3.90;;
20567;SDS011;10442;49.932;11.592;2022-09-24T02:39:07;4.70;;;4.28;;
20567;SDS011;10442;49.932;11.592;2022-09-24T02:41:34;4.03;;;3.73;;
20567;SDS011;10442;49.932;11.592;2022-09-24T02:44:02;4.18;;;3.80;;
20567;SDS011;10442;49.932;11.592;2022-09-24T02:46:29;5.80;;;4.67;;
20567;SDS011;10442;49.932;11.592;2022-09-24T02:48:57;4.97;;;4.63;;
20567;SDS011;10442;49.932;11.592;2022-09-24T02:51:24;3.90;;;3.60;;
20567;SDS011;10442;49.932;11.592;2022-09-24T02:53:52;4.30;;;4.00;;
20567;SDS011;10442;49.932;11.592;2022-09-24T02:56:19;3.92;;;3.65;;
20567;SDS011;10442;49.932;11.592;2022-09-24T02:58:46;4.80;;;4.37;;
20567;SDS011;10442;49.932;11.592;2022-09-24T03:01:14;3.87;;;3.47;;
20567;SDS011;10442;49.932;11.592;2022-09-24T03:03:42;6.37;;;4.30;;
20567;SDS011;10442;49.932;11.592;2022-09-24T03:06:10;4.17;;;3.83;;
20567;SDS011;10442;49.932;11.592;2022-09-24T03:08:39;4.27;;;3.87;;
20567;SDS011;10442;49.932;11.592;2022-09-24T03:11:08;3.53;;;3.33;;
20567;SDS011;10442;49.932;11.592;2022-09-24T03:13:42;3.90;;;3.60;;
20567;SDS011;10442;49.932;11.592;2022-09-24T03:16:09;3.67;;;3.37;;
20567;SDS011;10442;49.932;11.592;2022-09-24T03:18:37;4.10;;;3.33;;
20567;SDS011;10442;49.932;11.592;2022-09-24T03:21:06;3.10;;;2.90;;
20567;SDS011;10442;49.932;11.592;2022-09-24T03:23:36;3.50;;;3.20;;
20567;SDS011;10442;49.932;11.592;2022-09-24T03:26:03;4.50;;;3.40;;
20567;SDS011;10442;49.932;11.592;2022-09-24T03:28:31;3.47;;;3.27;;
20567;SDS011;10442;49.932;11.592;2022-09-24T03:30:59;4.03;;;3.73;;
20567;SDS011;10442;49.932;11.592;2022-09-24T03:36:18;3.85;;;3.55;;
20567;SDS011;10442;49.932;11.592;2022-09-24T03:38:49;3.33;;;3.03;;
20567;SDS011;10442;49.932;11.592;2022-09-24T03:41:21;4.30;;;3.90;;
20567;SDS011;10442;49.932;11.592;2022-09-24T03:43:49;4.00;;;3.70;;
20567;SDS011;10442;49.932;11.592;2022-09-24T03:46:18;3.90;;;3.53;;
20567;SDS011;10442;49.932;11.592;2022-09-24T03:48:45;4.87;;;4.10;;
20567;SDS011;10442;49.932;11.592;2022-09-24T03:51:16;3.57;;;3.23;;
20567;SDS011;10442;49.932;11.592;2022-09-24T03:53:45;3.40;;;3.10;;
20567;SDS011;10442;49.932;11.592;2022-09-24T03:56:13;3.70;;;3.40;;
20567;SDS011;10442;49.932;11.592;2022-09-24T03:58:41;3.77;;;3.47;;
20567;SDS011;10442;49.932;11.592;2022-09-24T04:01:13;4.47;;;4.07;;
20567;SDS011;10442;49.932;11.592;2022-09-24T04:03:48;3.93;;;3.67;;
20567;SDS011;10442;49.932;11.592;2022-09-24T04:06:16;3.50;;;3.17;;
20567;SDS011;10442;49.932;11.592;2022-09-24T04:08:51;5.33;;;4.77;;
20567;SDS011;10442;49.932;11.592;2022-09-24T04:11:19;6.17;;;4.17;;
20567;SDS011;10442;49.932;11.592;2022-09-24T04:13:47;3.67;;;3.37;;
20567;SDS011;10442;49.932;11.592;2022-09-24T04:16:14;3.77;;;3.37;;
20567;SDS011;10442;49.932;11.592;2022-09-24T04:18:43;4.87;;;3.67;;
20567;SDS011;10442;49.932;11.592;2022-09-24T04:21:10;2.87;;;2.67;;
20567;SDS011;10442;49.932;11.592;2022-09-24T04:23:38;3.47;;;3.17;;
20567;SDS011;10442;49.932;11.592;2022-09-24T04:26:05;3.87;;;3.60;;
20567;SDS011;10442;49.932;11.592;2022-09-24T04:28:33;3.23;;;2.97;;
20567;SDS011;10442;49.932;11.592;2022-09-24T04:31:01;5.20;;;3.60;;
20567;SDS011;10442;49.932;11.592;2022-09-24T04:33:28;4.87;;;3.83;;
20567;SDS011;10442;49.932;11.592;2022-09-24T04:35:56;4.53;;;4.13;;
20567;SDS011;10442;49.932;11.592;2022-09-24T04:38:23;3.73;;;3.43;;
20567;SDS011;10442;49.932;11.592;2022-09-24T04:40:51;4.73;;;4.40;;
20567;SDS011;10442;49.932;11.592;2022-09-24T04:43:19;4.97;;;4.37;;
20567;SDS011;10442;49.932;11.592;2022-09-24T04:45:47;4.40;;;4.07;;
20567;SDS011;10442;49.932;11.592;2022-09-24T04:48:14;3.77;;;3.47;;
20567;SDS011;10442;49.932;11.592;2022-09-24T04:50:41;5.07;;;4.33;;
20567;SDS011;10442;49.932;11.592;2022-09-24T04:53:12;5.27;;;4.00;;
20567;SDS011;10442;49.932;11.592;2022-09-24T04:55:40;7.00;;;4.10;;
20567;SDS011;10442;49.932;11.592;2022-09-24T04:58:08;4.13;;;3.80;;
20567;SDS011;10442;49.932;11.592;2022-09-24T05:00:36;3.50;;;3.23;;
20567;SDS011;10442;49.932;11.592;2022-09-24T05:03:04;3.40;;;3.10;;
20567;SDS011;10442;49.932;11.592;2022-09-24T05:05:32;4.47;;;4.03;;
20567;SDS011;10442;49.932;11.592;2022-09-24T05:08:01;3.77;;;3.47;;
20567;SDS011;10442;49.932;11.592;2022-09-24T05:10:29;4.53;;;4.03;;
20567;SDS011;10442;49.932;11.592;2022-09-24T05:13:00;3.57;;;3.30;;
20567;SDS011;10442;49.932;11.592;2022-09-24T05:15:28;3.57;;;3.27;;
20567;SDS011;10442;49.932;11.592;2022-09-24T05:17:56;5.88;;;4.25;;
20567;SDS011;10442;49.932;11.592;2022-09-24T05:20:24;4.38;;;2.90;;
20567;SDS011;10442;49.932;11.592;2022-09-24T05:22:51;3.53;;;3.23;;
20567;SDS011;10442;49.932;11.592;2022-09-24T05:25:19;5.03;;;3.90;;
20567;SDS011;10442;49.932;11.592;2022-09-24T05:27:50;2.95;;;2.75;;
20567;SDS011;10442;49.932;11.592;2022-09-24T05:30:20;4.00;;;3.60;;
20567;SDS011;10442;49.932;11.592;2022-09-24T05:32:49;3.88;;;3.50;;
20567;SDS011;10442;49.932;11.592;2022-09-24T05:35:18;4.00;;;3.70;;
20567;SDS011;10442;49.932;11.592;2022-09-24T05:37:47;3.90;;;3.60;;
20567;SDS011;10442;49.932;11.592;2022-09-24T05:40:15;4.07;;;3.78;;
20567;SDS011;10442;49.932;11.592;2022-09-24T05:43:02;3.90;;;3.60;;
20567;SDS011;10442;49.932;11.592;2022-09-24T05:45:30;4.50;;;3.75;;
20567;SDS011;10442;49.932;11.592;2022-09-24T05:48:00;4.22;;;3.67;;
20567;SDS011;10442;49.932;11.592;2022-09-24T05:50:27;3.65;;;3.40;;
20567;SDS011;10442;49.932;11.592;2022-09-24T05:52:55;4.50;;;3.47;;
20567;SDS011;10442;49.932;11.592;2022-09-24T05:55:23;4.18;;;3.63;;
20567;SDS011;10442;49.932;11.592;2022-09-24T05:58:06;3.88;;;3.58;;
20567;SDS011;10442;49.932;11.592;2022-09-24T06:00:36;3.53;;;3.22;;
20567;SDS011;10442;49.932;11.592;2022-09-24T06:03:05;4.00;;;3.60;;
20567;SDS011;10442;49.932;11.592;2022-09-24T06:05:36;4.03;;;3.33;;
20567;SDS011;10442;49.932;11.592;2022-09-24T06:08:04;4.47;;;4.07;;
20567;SDS011;10442;49.932;11.592;2022-09-24T06:10:31;3.55;;;3.25;;
20567;SDS011;10442;49.932;11.592;2022-09-24T06:12:59;3.70;;;3.08;;
20567;SDS011;10442;49.932;11.592;2022-09-24T06:15:27;3.95;;;3.65;;
20567;SDS011;10442;49.932;11.592;2022-09-24T06:17:55;3.10;;;2.80;;
20567;SDS011;10442;49.932;11.592;2022-09-24T06:20:22;3.28;;;2.97;;
20567;SDS011;10442;49.932;11.592;2022-09-24T06:22:50;3.70;;;3.47;;
20567;SDS011;10442;49.932;11.592;2022-09-24T06:25:21;2.75;;;2.55;;
20567;SDS011;10442;49.932;11.592;2022-09-24T06:27:56;3.92;;;3.47;;
20567;SDS011;10442;49.932;11.592;2022-09-24T06:30:37;3.13;;;2.92;;
20567;SDS011;10442;49.932;11.592;2022-09-24T06:33:06;3.63;;;3.33;;
20567;SDS011;10442;49.932;11.592;2022-09-24T06:35:36;3.58;;;3.38;;
20567;SDS011;10442;49.932;11.592;2022-09-24T06:38:04;4.47;;;3.28;;
20567;SDS011;10442;49.932;11.592;2022-09-24T06:40:33;4.10;;;3.72;;
20567;SDS011;10442;49.932;11.592;2022-09-24T06:43:04;3.53;;;3.22;;
20567;SDS011;10442;49.932;11.592;2022-09-24T06:45:32;3.17;;;2.92;;
20567;SDS011;10442;49.932;11.592;2022-09-24T06:48:01;2.70;;;2.50;;
20567;SDS011;10442;49.932;11.592;2022-09-24T06:50:30;3.63;;;3.33;;
20567;SDS011;10442;49.932;11.592;2022-09-24T06:53:03;3.45;;;3.25;;
20567;SDS011;10442;49.932;11.592;2022-09-24T06:55:31;4.40;;;3.40;;
20567;SDS011;10442;49.932;11.592;2022-09-24T06:58:07;6.43;;;3.63;;
20567;SDS011;10442;49.932;11.592;2022-09-24T07:00:37;3.47;;;3.17;;
20567;SDS011;10442;49.932;11.592;2022-09-24T07:03:05;4.97;;;3.35;;
20567;SDS011;10442;49.932;11.592;2022-09-24T07:05:33;8.30;;;3.78;;
20567;SDS011;10442;49.932;11.592;2022-09-24T07:08:09;3.15;;;2.92;;
20567;SDS011;10442;49.932;11.592;2022-09-24T07:10:40;3.08;;;2.75;;
20567;SDS011;10442;49.932;11.592;2022-09-24T07:13:08;3.10;;;2.80;;
20567;SDS011;10442;49.932;11.592;2022-09-24T07:15:36;10.15;;;2.50;;
20567;SDS011;10442;49.932;11.592;2022-09-24T07:18:04;2.63;;;2.42;;
20567;SDS011;10442;49.932;11.592;2022-09-24T07:20:32;2.70;;;2.50;;
20567;SDS011;10442;49.932;11.592;2022-09-24T07:23:05;2.67;;;2.47;;
20567;SDS011;10442;49.932;11.592;2022-09-24T07:25:35;3.30;;;3.08;;
20567;SDS011;10442;49.932;11.592;2022-09-24T07:28:04;3.25;;;3.00;;
20567;SDS011;10442;49.932;11.592;2022-09-24T07:30:34;3.03;;;2.83;;
20567;SDS011;10442;49.932;11.592;2022-09-24T07:33:02;4.05;;;3.75;;
20567;SDS011;10442;49.932;11.592;2022-09-24T07:35:30;4.32;;;2.97;;
20567;SDS011;10442;49.932;11.592;2022-09-24T07:38:02;3.40;;;3.10;;
20567;SDS011;10442;49.932;11.592;2022-09-24T07:40:32;4.40;;;3.20;;
20567;SDS011;10442;49.932;11.592;2022-09-24T07:42:59;3.25;;;3.03;;
20567;SDS011;10442;49.932;11.592;2022-09-24T07:45:27;3.80;;;3.53;;
20567;SDS011;10442;49.932;11.592;2022-09-24T07:48:02;7.30;;;3.53;;
20567;SDS011;10442;49.932;11.592;2022-09-24T07:50:33;4.45;;;3.97;;
20567;SDS011;10442;49.932;11.592;2022-09-24T07:53:04;4.72;;;4.30;;
20567;SDS011;10442;49.932;11.592;2022-09-24T07:55:32;3.00;;;2.80;;
20567;SDS011;10442;49.932;11.592;2022-09-24T07:58:06;6.00;;;2.70;;
20567;SDS011;10442;49.932;11.592;2022-09-24T08:00:37;2.92;;;2.72;;
20567;SDS011;10442;49.932;11.592;2022-09-24T08:03:05;3.30;;;3.05;;
20567;SDS011;10442;49.932;11.592;2022-09-24T08:05:33;4.35;;;2.67;;
20567;SDS011;10442;49.932;11.592;2022-09-24T08:08:01;3.50;;;2.15;;
20567;SDS011;10442;49.932;11.592;2022-09-24T08:10:29;3.63;;;2.55;;
20567;SDS011;10442;49.932;11.592;2022-09-24T08:12:59;3.28;;;2.55;;
20567;SDS011;10442;49.932;11.592;2022-09-24T08:15:28;2.47;;;2.35;;
20567;SDS011;10442;49.932;11.592;2022-09-24T08:18:00;3.33;;;3.05;;
20567;SDS011;10442;49.932;11.592;2022-09-24T08:20:30;3.70;;;3.40;;
20567;SDS011;10442;49.932;11.592;2022-09-24T08:23:02;3.60;;;2.58;;
20567;SDS011;10442;49.932;11.592;2022-09-24T08:25:30;3.45;;;2.60;;
20567;SDS011;10442;49.932;11.592;2022-09-24T08:28:02;4.85;;;2.35;;
20567;SDS011;10442;49.932;11.592;2022-09-24T08:30:31;3.75;;;3.45;;
20567;SDS011;10442;49.932;11.592;2022-09-24T08:32:59;3.67;;;3.38;;
20567;SDS011;10442;49.932;11.592;2022-09-24T08:35:27;3.35;;;3.15;;
20567;SDS011;10442;49.932;11.592;2022-09-24T08:37:55;2.67;;;2.55;;
20567;SDS011;10442;49.932;11.592;2022-09-24T08:40:23;4.30;;;2.83;;
20567;SDS011;10442;49.932;11.592;2022-09-24T08:45:45;3.38;;;3.10;;
20567;SDS011;10442;49.932;11.592;2022-09-24T08:48:37;3.15;;;2.95;;
20567;SDS011;10442;49.932;11.592;2022-09-24T08:51:10;3.90;;;3.60;;
20567;SDS011;10442;49.932;11.592;2022-09-24T08:56:19;3.30;;;3.00;;
20567;SDS011;10442;49.932;11.592;2022-09-24T09:01:30;3.63;;;3.38;;
20567;SDS011;10442;49.932;11.592;2022-09-24T09:04:01;3.45;;;3.22;;
20567;SDS011;10442;49.932;11.592;2022-09-24T09:06:51;4.40;;;3.30;;
20567;SDS011;10442;49.932;11.592;2022-09-24T09:15:43;3.22;;;2.92;;
20567;SDS011;10442;49.932;11.592;2022-09-24T09:18:17;5.05;;;4.05;;
20567;SDS011;10442;49.932;11.592;2022-09-24T09:20:54;3.78;;;3.47;;
20567;SDS011;10442;49.932;11.592;2022-09-24T09:23:36;4.05;;;3.53;;
20567;SDS011;10442;49.932;11.592;2022-09-24T09:26:10;5.10;;;4.60;;
20567;SDS011;10442;49.932;11.592;2022-09-24T09:28:37;3.20;;;3.00;;
20567;SDS011;10442;49.932;11.592;2022-09-24T09:37:30;3.83;;;3.60;;
20567;SDS011;10442;49.932;11.592;2022-09-24T09:43:03;3.80;;;3.58;;
20567;SDS011;10442;49.932;11.592;2022-09-24T09:48:10;4.13;;;3.75;;
20567;SDS011;10442;49.932;11.592;2022-09-24T09:56:00;4.30;;;4.00;;
20567;SDS011;10442;49.932;11.592;2022-09-24T09:58:30;3.40;;;3.15;;
20567;SDS011;10442;49.932;11.592;2022-09-24T10:01:10;4.50;;;4.10;;
20567;SDS011;10442;49.932;11.592;2022-09-24T10:06:11;3.65;;;3.45;;
20567;SDS011;10442;49.932;11.592;2022-09-24T10:08:40;4.15;;;3.70;;
20567;SDS011;10442;49.932;11.592;2022-09-24T10:11:11;3.83;;;3.53;;
20567;SDS011;10442;49.932;11.592;2022-09-24T10:13:42;3.92;;;3.30;;
20567;SDS011;10442;49.932;11.592;2022-09-24T10:16:11;4.15;;;3.85;;
20567;SDS011;10442;49.932;11.592;2022-09-24T10:18:45;3.65;;;3.33;;
20567;SDS011;10442;49.932;11.592;2022-09-24T10:21:30;3.22;;;3.03;;
20567;SDS011;10442;49.932;11.592;2022-09-24T10:24:01;3.75;;;3.45;;
20567;SDS011;10442;49.932;11.592;2022-09-24T10:26:35;4.47;;;4.10;;
20567;SDS011;10442;49.932;11.592;2022-09-24T10:32:16;5.03;;;4.22;;
20567;SDS011;10442;49.932;11.592;2022-09-24T10:37:26;4.10;;;3.80;;
20567;SDS011;10442;49.932;11.592;2022-09-24T10:40:01;4.38;;;3.85;;
20567;SDS011;10442;49.932;11.592;2022-09-24T10:42:39;3.67;;;3.38;;
20567;SDS011;10442;49.932;11.592;2022-09-24T10:45:09;3.50;;;3.30;;
20567;SDS011;10442;49.932;11.592;2022-09-24T10:50:28;6.53;;;4.30;;
20567;SDS011;10442;49.932;11.592;2022-09-24T10:53:02;4.78;;;4.38;;
20567;SDS011;10442;49.932;11.592;2022-09-24T10:58:20;7.22;;;3.85;;
20567;SDS011;10442;49.932;11.592;2022-09-24T11:04:05;8.63;;;4.07;;
20567;SDS011;10442;49.932;11.592;2022-09-24T11:07:05;4.95;;;4.47;;
20567;SDS011;10442;49.932;11.592;2022-09-24T11:12:26;4.82;;;4.43;;
20567;SDS011;10442;49.932;11.592;2022-09-24T11:15:02;4.85;;;4.47;;
20567;SDS011;10442;49.932;11.592;2022-09-24T11:23:45;3.35;;;3.05;;
20567;SDS011;10442;49.932;11.592;2022-09-24T11:26:23;4.25;;;3.92;;
20567;SDS011;10442;49.932;11.592;2022-09-24T11:33:59;7.50;;;4.43;;
20567;SDS011;10442;49.932;11.592;2022-09-24T11:36:51;4.90;;;4.55;;
20567;SDS011;10442;49.932;11.592;2022-09-24T11:39:33;5.43;;;4.93;;
20567;SDS011;10442;49.932;11.592;2022-09-24T11:42:20;5.50;;;4.32;;
20567;SDS011;10442;49.932;11.592;2022-09-24T11:45:06;4.90;;;4.50;;
20567;SDS011;10442;49.932;11.592;2022-09-24T11:50:48;4.53;;;4.22;;
20567;SDS011;10442;49.932;11.592;2022-09-24T11:53:41;4.07;;;3.70;;
20567;SDS011;10442;49.932;11.592;2022-09-24T11:56:35;4.88;;;4.38;;
20567;SDS011;10442;49.932;11.592;2022-09-24T12:01:59;5.38;;;4.45;;
20567;SDS011;10442;49.932;11.592;2022-09-24T12:04:41;4.50;;;4.10;;
20567;SDS011;10442;49.932;11.592;2022-09-24T12:07:22;4.35;;;4.00;;
20567;SDS011;10442;49.932;11.592;2022-09-24T12:10:02;3.72;;;3.45;;
20567;SDS011;10442;49.932;11.592;2022-09-24T12:12:40;5.38;;;4.95;;
20567;SDS011;10442;49.932;11.592;2022-09-24T12:15:13;4.40;;;4.10;;
20567;SDS011;10442;49.932;11.592;2022-09-24T12:17:48;3.95;;;3.65;;
20567;SDS011;10442;49.932;11.592;2022-09-24T12:20:22;4.07;;;3.75;;
20567;SDS011;10442;49.932;11.592;2022-09-24T12:22:55;5.35;;;4.28;;
20567;SDS011;10442;49.932;11.592;2022-09-24T12:25:41;3.70;;;3.40;;
20567;SDS011;10442;49.932;11.592;2022-09-24T12:28:12;7.18;;;3.97;;
20567;SDS011;10442;49.932;11.592;2022-09-24T12:31:21;6.63;;;4.32;;
20567;SDS011;10442;49.932;11.592;2022-09-24T12:37:01;3.88;;;3.58;;
20567;SDS011;10442;49.932;11.592;2022-09-24T12:39:48;4.47;;;4.07;;
20567;SDS011;10442;49.932;11.592;2022-09-24T12:42:23;4.35;;;3.95;;
20567;SDS011;10442;49.932;11.592;2022-09-24T12:44:57;4.90;;;3.70;;
20567;SDS011;10442;49.932;11.592;2022-09-24T12:47:27;4.45;;;3.53;;
20567;SDS011;10442;49.932;11.592;2022-09-24T12:49:59;6.22;;;4.00;;
20567;SDS011;10442;49.932;11.592;2022-09-24T12:55:18;4.28;;;3.97;;
20567;SDS011;10442;49.932;11.592;2022-09-24T12:58:04;3.75;;;3.45;;
20567;SDS011;10442;49.932;11.592;2022-09-24T13:06:01;4.55;;;4.20;;
20567;SDS011;10442;49.932;11.592;2022-09-24T13:08:45;15.20;;;4.03;;
20567;SDS011;10442;49.932;11.592;2022-09-24T13:11:25;6.63;;;4.53;;
20567;SDS011;10442;49.932;11.592;2022-09-24T13:16:39;2.88;;;2.67;;
20567;SDS011;10442;49.932;11.592;2022-09-24T13:19:32;1.95;;;1.85;;
20567;SDS011;10442;49.932;11.592;2022-09-24T13:22:24;2.13;;;1.92;;
20567;SDS011;10442;49.932;11.592;2022-09-24T13:25:19;2.03;;;1.90;;
20567;SDS011;10442;49.932;11.592;2022-09-24T13:27:57;2.83;;;2.63;;
20567;SDS011;10442;49.932;11.592;2022-09-24T13:32:56;2.03;;;1.92;;
20567;SDS011;10442;49.932;11.592;2022-09-24T13:35:32;3.50;;;3.20;;
20567;SDS011;10442;49.932;11.592;2022-09-24T13:38:11;2.38;;;2.28;;
20567;SDS011;10442;49.932;11.592;2022-09-24T13:41:36;2.25;;;2.15;;
20567;SDS011;10442;49.932;11.592;2022-09-24T13:43:46;3.50;;;2.22;;
20567;SDS011;10442;49.932;11.592;2022-09-24T13:46:22;2.10;;;2.00;;
20567;SDS011;10442;49.932;11.592;2022-09-24T13:48:51;2.55;;;2.35;;
20567;SDS011;10442;49.932;11.592;2022-09-24T13:51:27;2.08;;;1.98;;
20567;SDS011;10442;49.932;11.592;2022-09-24T13:54:09;2.42;;;2.22;;
20567;SDS011;10442;49.932;11.592;2022-09-24T13:56:39;2.95;;;2.65;;
20567;SDS011;10442;49.932;11.592;2022-09-24T13:59:10;3.70;;;2.75;;
20567;SDS011;10442;49.932;11.592;2022-09-24T14:01:41;2.58;;;2.05;;
20567;SDS011;10442;49.932;11.592;2022-09-24T14:04:14;2.90;;;2.30;;
20567;SDS011;10442;49.932;11.592;2022-09-24T14:06:48;2.88;;;2.67;;
20567;SDS011;10442;49.932;11.592;2022-09-24T14:09:28;2.63;;;2.42;;
20567;SDS011;10442;49.932;11.592;2022-09-24T14:12:12;2.92;;;2.67;;
20567;SDS011;10442;49.932;11.592;2022-09-24T14:14:42;2.30;;;2.10;;
20567;SDS011;10442;49.932;11.592;2022-09-24T14:17:14;2.17;;;2.08;;
20567;SDS011;10442;49.932;11.592;2022-09-24T14:19:41;2.78;;;2.53;;
20567;SDS011;10442;49.932;11.592;2022-09-24T14:22:17;1.88;;;1.77;;
20567;SDS011;10442;49.932;11.592;2022-09-24T14:25:09;3.97;;;2.38;;
20567;SDS011;10442;49.932;11.592;2022-09-24T14:27:48;2.70;;;2.17;;
20567;SDS011;10442;49.932;11.592;2022-09-24T14:30:18;3.03;;;2.28;;
20567;SDS011;10442;49.932;11.592;2022-09-24T14:32:49;2.20;;;2.10;;
20567;SDS011;10442;49.932;11.592;2022-09-24T14:38:11;3.67;;;1.75;;
20567;SDS011;10442;49.932;11.592;2022-09-24T14:40:41;2.30;;;2.20;;
20567;SDS011;10442;49.932;11.592;2022-09-24T14:43:15;1.88;;;1.70;;
20567;SDS011;10442;49.932;11.592;2022-09-24T14:45:47;2.22;;;2.13;;
20567;SDS011;10442;49.932;11.592;2022-09-24T14:48:30;3.05;;;2.75;;
20567;SDS011;10442;49.932;11.592;2022-09-24T14:50:59;2.80;;;2.60;;
20567;SDS011;10442;49.932;11.592;2022-09-24T14:53:34;4.18;;;2.33;;
20567;SDS011;10442;49.932;11.592;2022-09-24T14:56:17;2.60;;;2.40;;
20567;SDS011;10442;49.932;11.592;2022-09-24T14:58:46;2.55;;;2.38;;
20567;SDS011;10442;49.932;11.592;2022-09-24T15:01:14;3.60;;;2.33;;
20567;SDS011;10442;49.932;11.592;2022-09-24T15:03:49;5.05;;;2.60;;
20567;SDS011;10442;49.932;11.592;2022-09-24T15:06:21;3.72;;;3.38;;
20567;SDS011;10442;49.932;11.592;2022-09-24T15:08:58;2.53;;;2.42;;
20567;SDS011;10442;49.932;11.592;2022-09-24T15:11:29;3.83;;;2.97;;
20567;SDS011;10442;49.932;11.592;2022-09-24T15:14:01;2.67;;;2.47;;
20567;SDS011;10442;49.932;11.592;2022-09-24T15:16:39;3.45;;;2.22;;
20567;SDS011;10442;49.932;11.592;2022-09-24T15:21:37;2.22;;;2.03;;
20567;SDS011;10442;49.932;11.592;2022-09-24T15:24:06;4.03;;;2.78;;
20567;SDS011;10442;49.932;11.592;2022-09-24T15:26:34;2.88;;;1.60;;
20567;SDS011;10442;49.932;11.592;2022-09-24T15:29:04;4.40;;;2.55;;
20567;SDS011;10442;49.932;11.592;2022-09-24T15:31:32;2.70;;;2.10;;
20567;SDS011;10442;49.932;11.592;2022-09-24T15:34:00;3.63;;;2.58;;
20567;SDS011;10442;49.932;11.592;2022-09-24T15:36:28;2.65;;;2.00;;
20567;SDS011;10442;49.932;11.592;2022-09-24T15:38:57;2.35;;;2.20;;
20567;SDS011;10442;49.932;11.592;2022-09-24T15:41:29;2.63;;;2.42;;
20567;SDS011;10442;49.932;11.592;2022-09-24T15:43:57;3.33;;;2.40;;
20567;SDS011;10442;49.932;11.592;2022-09-24T15:46:25;4.55;;;1.85;;
20567;SDS011;10442;49.932;11.592;2022-09-24T15:48:53;2.38;;;2.20;;
20567;SDS011;10442;49.932;11.592;2022-09-24T15:51:21;2.13;;;1.90;;
20567;SDS011;10442;49.932;11.592;2022-09-24T15:53:50;2.30;;;2.10;;
20567;SDS011;10442;49.932;11.592;2022-09-24T15:56:18;2.92;;;2.10;;
20567;SDS011;10442;49.932;11.592;2022-09-24T15:58:45;3.92;;;2.13;;
20567;SDS011;10442;49.932;11.592;2022-09-24T16:01:16;3.45;;;1.98;;
20567;SDS011;10442;49.932;11.592;2022-09-24T16:03:44;2.55;;;2.10;;
20567;SDS011;10442;49.932;11.592;2022-09-24T16:06:12;2.78;;;2.33;;
20567;SDS011;10442;49.932;11.592;2022-09-24T16:08:40;2.90;;;2.13;;
20567;SDS011;10442;49.932;11.592;2022-09-24T16:11:08;3.55;;;2.17;;
20567;SDS011;10442;49.932;11.592;2022-09-24T16:13:36;2.92;;;2.47;;
20567;SDS011;10442;49.932;11.592;2022-09-24T16:16:06;2.58;;;2.40;;
20567;SDS011;10442;49.932;11.592;2022-09-24T16:18:34;3.20;;;2.90;;
20567;SDS011;10442;49.932;11.592;2022-09-24T16:21:06;2.63;;;2.42;;
20567;SDS011;10442;49.932;11.592;2022-09-24T16:23:34;2.25;;;2.05;;
20567;SDS011;10442;49.932;11.592;2022-09-24T16:26:01;2.45;;;2.25;;
20567;SDS011;10442;49.932;11.592;2022-09-24T16:28:29;2.80;;;2.28;;
20567;SDS011;10442;49.932;11.592;2022-09-24T16:30:57;2.72;;;2.53;;
20567;SDS011;10442;49.932;11.592;2022-09-24T16:33:25;10.00;;;2.20;;
20567;SDS011;10442;49.932;11.592;2022-09-24T16:35:52;2.28;;;2.08;;
20567;SDS011;10442;49.932;11.592;2022-09-24T16:38:20;2.13;;;1.92;;
20567;SDS011;10442;49.932;11.592;2022-09-24T16:40:57;2.13;;;2.03;;
20567;SDS011;10442;49.932;11.592;2022-09-24T16:43:26;3.65;;;2.58;;
20567;SDS011;10442;49.932;11.592;2022-09-24T16:45:58;3.25;;;1.90;;
20567;SDS011;10442;49.932;11.592;2022-09-24T16:48:30;3.45;;;2.25;;